sensor_id;sensor_type;location;lat;lon;timestamp;temperature;humidity
17813;DHT22;9030;50.792;8.320;2023-04-22T00:02:23;6.90;99.90
17813;DHT22;9030;50.792;8.320;2023-04-22T00:04:50;6.90;99.90
17813;DHT22;9030;50.792;8.320;2023-04-22T00:07:17;6.90;99.90
17813;DHT22;9030;50.792;8.320;2023-04-22T00:09:44;6.90;99.90
17813;DHT22;9030;50.792;8.320;2023-04-22T00:12:11;6.80;99.90
17813;DHT22;9030;50.792;8.320;2023-04-22T00:14:38;6.80;99.90
17813;DHT22;9030;50.792;8.320;2023-04-22T00:17:05;6.80;99.90
17813;DHT22;9030;50.792;8.320;2023-04-22T00:19:33;6.80;99.90
17813;DHT22;9030;50.792;8.320;2023-04-22T00:22:02;6.70;99.90
17813;DHT22;9030;50.792;8.320;2023-04-22T00:24:29;6.70;99.90
17813;DHT22;9030;50.792;8.320;2023-04-22T00:26:56;6.80;99.90
17813;DHT22;9030;50.792;8.320;2023-04-22T00:29:24;6.70;99.90
17813;DHT22;9030;50.792;8.320;2023-04-22T00:31:51;6.80;99.90
17813;DHT22;9030;50.792;8.320;2023-04-22T00:34:17;6.90;99.90
17813;DHT22;9030;50.792;8.320;2023-04-22T00:36:46;6.90;99.90
17813;DHT22;9030;50.792;8.320;2023-04-22T00:39:12;6.90;99.90
17813;DHT22;9030;50.792;8.320;2023-04-22T00:41:39;6.90;99.90
17813;DHT22;9030;50.792;8.320;2023-04-22T00:44:08;7.00;99.90
17813;DHT22;9030;50.792;8.320;2023-04-22T00:46:36;6.90;99.90
17813;DHT22;9030;50.792;8.320;2023-04-22T00:49:04;6.90;99.90
17813;DHT22;9030;50.792;8.320;2023-04-22T00:51:30;6.90;99.90
17813;DHT22;9030;50.792;8.320;2023-04-22T00:53:59;7.00;99.90
17813;DHT22;9030;50.792;8.320;2023-04-22T00:56:27;6.90;99.90
17813;DHT22;9030;50.792;8.320;2023-04-22T00:58:55;7.00;99.90
17813;DHT22;9030;50.792;8.320;2023-04-22T01:01:22;7.00;99.90
17813;DHT22;9030;50.792;8.320;2023-04-22T01:03:51;6.90;99.90
17813;DHT22;9030;50.792;8.320;2023-04-22T01:06:18;7.00;99.90
17813;DHT22;9030;50.792;8.320;2023-04-22T01:08:46;6.90;99.90
17813;DHT22;9030;50.792;8.320;2023-04-22T01:11:17;6.90;99.90
17813;DHT22;9030;50.792;8.320;2023-04-22T01:13:44;6.90;99.90
17813;DHT22;9030;50.792;8.320;2023-04-22T01:16:11;6.90;99.90
17813;DHT22;9030;50.792;8.320;2023-04-22T01:18:38;6.90;99.90
17813;DHT22;9030;50.792;8.320;2023-04-22T01:21:05;6.80;99.90
17813;DHT22;9030;50.792;8.320;2023-04-22T01:23:33;6.80;99.90
17813;DHT22;9030;50.792;8.320;2023-04-22T01:26:00;6.80;99.90
17813;DHT22;9030;50.792;8.320;2023-04-22T01:28:27;6.90;99.90
17813;DHT22;9030;50.792;8.320;2023-04-22T01:30:54;6.90;99.90
17813;DHT22;9030;50.792;8.320;2023-04-22T01:33:32;6.90;99.90
17813;DHT22;9030;50.792;8.320;2023-04-22T01:35:59;6.90;99.90
17813;DHT22;9030;50.792;8.320;2023-04-22T01:38:26;6.90;99.90
17813;DHT22;9030;50.792;8.320;2023-04-22T01:40:54;6.90;99.90
17813;DHT22;9030;50.792;8.320;2023-04-22T01:43:24;6.90;99.90
17813;DHT22;9030;50.792;8.320;2023-04-22T01:45:52;6.90;99.90
17813;DHT22;9030;50.792;8.320;2023-04-22T01:48:19;6.90;99.90
17813;DHT22;9030;50.792;8.320;2023-04-22T01:50:46;6.90;99.90
17813;DHT22;9030;50.792;8.320;2023-04-22T01:53:12;6.90;99.90
17813;DHT22;9030;50.792;8.320;2023-04-22T01:55:39;6.90;99.90
17813;DHT22;9030;50.792;8.320;2023-04-22T01:58:08;6.90;99.90
17813;DHT22;9030;50.792;8.320;2023-04-22T02:00:35;6.90;99.90
17813;DHT22;9030;50.792;8.320;2023-04-22T02:03:02;6.90;99.90
17813;DHT22;9030;50.792;8.320;2023-04-22T02:05:29;6.90;99.90
17813;DHT22;9030;50.792;8.320;2023-04-22T02:07:56;7.00;99.90
17813;DHT22;9030;50.792;8.320;2023-04-22T02:10:28;6.90;99.90
17813;DHT22;9030;50.792;8.320;2023-04-22T02:12:55;6.90;99.90
17813;DHT22;9030;50.792;8.320;2023-04-22T02:15:23;6.90;99.90
17813;DHT22;9030;50.792;8.320;2023-04-22T02:17:49;6.90;99.90
17813;DHT22;9030;50.792;8.320;2023-04-22T02:20:17;6.90;99.90
17813;DHT22;9030;50.792;8.320;2023-04-22T02:22:44;6.90;99.90
17813;DHT22;9030;50.792;8.320;2023-04-22T02:25:11;6.90;99.90
17813;DHT22;9030;50.792;8.320;2023-04-22T02:27:38;6.90;99.90
17813;DHT22;9030;50.792;8.320;2023-04-22T02:30:07;6.90;99.90
17813;DHT22;9030;50.792;8.320;2023-04-22T02:32:35;6.90;99.90
17813;DHT22;9030;50.792;8.320;2023-04-22T02:35:03;6.90;99.90
17813;DHT22;9030;50.792;8.320;2023-04-22T02:37:30;6.90;99.90
17813;DHT22;9030;50.792;8.320;2023-04-22T02:39:57;6.90;99.90
17813;DHT22;9030;50.792;8.320;2023-04-22T02:42:24;6.90;99.90
17813;DHT22;9030;50.792;8.320;2023-04-22T02:44:51;6.90;99.90
17813;DHT22;9030;50.792;8.320;2023-04-22T02:47:17;6.80;99.90
17813;DHT22;9030;50.792;8.320;2023-04-22T02:49:45;6.80;99.90
17813;DHT22;9030;50.792;8.320;2023-04-22T02:52:12;6.90;99.90
17813;DHT22;9030;50.792;8.320;2023-04-22T02:54:39;6.90;99.90
17813;DHT22;9030;50.792;8.320;2023-04-22T02:57:05;6.90;99.90
17813;DHT22;9030;50.792;8.320;2023-04-22T02:59:37;6.90;99.90
17813;DHT22;9030;50.792;8.320;2023-04-22T03:02:04;7.00;99.90
17813;DHT22;9030;50.792;8.320;2023-04-22T03:04:31;6.90;99.90
17813;DHT22;9030;50.792;8.320;2023-04-22T03:06:59;6.90;99.90
17813;DHT22;9030;50.792;8.320;2023-04-22T03:09:26;7.00;99.90
17813;DHT22;9030;50.792;8.320;2023-04-22T03:11:52;7.00;99.90
17813;DHT22;9030;50.792;8.320;2023-04-22T03:14:19;7.00;99.90
17813;DHT22;9030;50.792;8.320;2023-04-22T03:16:49;7.00;99.90
17813;DHT22;9030;50.792;8.320;2023-04-22T03:19:16;7.00;99.90
17813;DHT22;9030;50.792;8.320;2023-04-22T03:21:43;7.00;99.90
17813;DHT22;9030;50.792;8.320;2023-04-22T03:24:11;7.00;99.90
17813;DHT22;9030;50.792;8.320;2023-04-22T03:26:37;7.10;99.90
17813;DHT22;9030;50.792;8.320;2023-04-22T03:29:06;7.10;99.90
17813;DHT22;9030;50.792;8.320;2023-04-22T03:31:33;7.10;99.90
17813;DHT22;9030;50.792;8.320;2023-04-22T03:33:59;7.10;99.90
17813;DHT22;9030;50.792;8.320;2023-04-22T03:36:26;7.10;99.90
17813;DHT22;9030;50.792;8.320;2023-04-22T03:38:53;7.10;99.90
17813;DHT22;9030;50.792;8.320;2023-04-22T03:41:21;7.10;99.90
17813;DHT22;9030;50.792;8.320;2023-04-22T03:43:50;7.10;99.90
17813;DHT22;9030;50.792;8.320;2023-04-22T03:46:17;7.00;99.90
17813;DHT22;9030;50.792;8.320;2023-04-22T03:48:45;7.00;99.90
17813;DHT22;9030;50.792;8.320;2023-04-22T03:51:12;7.00;99.90
17813;DHT22;9030;50.792;8.320;2023-04-22T03:53:39;7.00;99.90
17813;DHT22;9030;50.792;8.320;2023-04-22T03:56:05;7.10;99.90
17813;DHT22;9030;50.792;8.320;2023-04-22T03:58:33;7.00;99.90
17813;DHT22;9030;50.792;8.320;2023-04-22T04:01:00;7.00;99.90
17813;DHT22;9030;50.792;8.320;2023-04-22T04:03:27;7.00;99.90
17813;DHT22;9030;50.792;8.320;2023-04-22T04:05:54;7.00;99.90
17813;DHT22;9030;50.792;8.320;2023-04-22T04:08:20;7.00;99.90
17813;DHT22;9030;50.792;8.320;2023-04-22T04:10:48;7.00;99.90
17813;DHT22;9030;50.792;8.320;2023-04-22T04:13:15;7.00;99.90
17813;DHT22;9030;50.792;8.320;2023-04-22T04:15:43;7.00;99.90
17813;DHT22;9030;50.792;8.320;2023-04-22T04:18:10;6.90;99.90
17813;DHT22;9030;50.792;8.320;2023-04-22T04:20:38;6.90;99.90
17813;DHT22;9030;50.792;8.320;2023-04-22T04:23:05;6.80;99.90
17813;DHT22;9030;50.792;8.320;2023-04-22T04:25:32;6.80;99.90
17813;DHT22;9030;50.792;8.320;2023-04-22T04:28:02;6.70;99.90
17813;DHT22;9030;50.792;8.320;2023-04-22T04:30:29;6.70;99.90
17813;DHT22;9030;50.792;8.320;2023-04-22T04:32:59;6.70;99.90
17813;DHT22;9030;50.792;8.320;2023-04-22T04:35:31;6.60;99.90
17813;DHT22;9030;50.792;8.320;2023-04-22T04:37:58;6.50;99.90
17813;DHT22;9030;50.792;8.320;2023-04-22T04:40:26;6.60;99.90
17813;DHT22;9030;50.792;8.320;2023-04-22T04:42:54;6.60;99.90
17813;DHT22;9030;50.792;8.320;2023-04-22T04:45:24;6.70;99.90
17813;DHT22;9030;50.792;8.320;2023-04-22T04:47:50;6.70;99.90
17813;DHT22;9030;50.792;8.320;2023-04-22T04:50:21;6.70;99.90
17813;DHT22;9030;50.792;8.320;2023-04-22T04:52:48;6.70;99.90
17813;DHT22;9030;50.792;8.320;2023-04-22T04:55:15;6.60;99.90
17813;DHT22;9030;50.792;8.320;2023-04-22T04:57:43;6.70;99.90
17813;DHT22;9030;50.792;8.320;2023-04-22T05:00:11;6.80;99.90
17813;DHT22;9030;50.792;8.320;2023-04-22T05:02:38;6.80;99.90
17813;DHT22;9030;50.792;8.320;2023-04-22T05:05:06;6.90;99.90
17813;DHT22;9030;50.792;8.320;2023-04-22T05:07:34;6.90;99.90
17813;DHT22;9030;50.792;8.320;2023-04-22T05:10:01;7.00;99.90
17813;DHT22;9030;50.792;8.320;2023-04-22T05:12:27;7.10;99.90
17813;DHT22;9030;50.792;8.320;2023-04-22T05:14:54;7.30;99.90
17813;DHT22;9030;50.792;8.320;2023-04-22T05:17:21;7.30;99.90
17813;DHT22;9030;50.792;8.320;2023-04-22T05:19:48;7.30;99.90
17813;DHT22;9030;50.792;8.320;2023-04-22T05:22:15;7.40;99.90
17813;DHT22;9030;50.792;8.320;2023-04-22T05:24:43;7.40;99.90
17813;DHT22;9030;50.792;8.320;2023-04-22T05:27:10;7.40;99.90
17813;DHT22;9030;50.792;8.320;2023-04-22T05:29:37;7.40;99.90
17813;DHT22;9030;50.792;8.320;2023-04-22T05:32:05;7.40;99.90
17813;DHT22;9030;50.792;8.320;2023-04-22T05:34:32;7.40;99.90
17813;DHT22;9030;50.792;8.320;2023-04-22T05:37:08;7.50;99.90
17813;DHT22;9030;50.792;8.320;2023-04-22T05:39:35;7.50;99.90
17813;DHT22;9030;50.792;8.320;2023-04-22T05:42:03;7.60;99.90
17813;DHT22;9030;50.792;8.320;2023-04-22T05:44:30;7.60;99.90
17813;DHT22;9030;50.792;8.320;2023-04-22T05:46:57;7.70;99.90
17813;DHT22;9030;50.792;8.320;2023-04-22T05:49:24;7.80;99.90
17813;DHT22;9030;50.792;8.320;2023-04-22T05:51:51;7.90;99.90
17813;DHT22;9030;50.792;8.320;2023-04-22T05:54:17;7.90;99.90
17813;DHT22;9030;50.792;8.320;2023-04-22T05:56:44;7.90;99.90
17813;DHT22;9030;50.792;8.320;2023-04-22T05:59:12;8.00;99.90
17813;DHT22;9030;50.792;8.320;2023-04-22T06:01:39;8.10;99.90
17813;DHT22;9030;50.792;8.320;2023-04-22T06:04:06;8.20;99.90
17813;DHT22;9030;50.792;8.320;2023-04-22T06:06:34;8.40;99.90
17813;DHT22;9030;50.792;8.320;2023-04-22T06:09:01;8.50;99.90
17813;DHT22;9030;50.792;8.320;2023-04-22T06:11:27;8.60;99.90
17813;DHT22;9030;50.792;8.320;2023-04-22T06:13:54;8.80;99.90
17813;DHT22;9030;50.792;8.320;2023-04-22T06:16:25;8.90;99.90
17813;DHT22;9030;50.792;8.320;2023-04-22T06:18:53;9.10;99.90
17813;DHT22;9030;50.792;8.320;2023-04-22T06:21:20;9.30;99.90
17813;DHT22;9030;50.792;8.320;2023-04-22T06:23:47;9.40;99.90
17813;DHT22;9030;50.792;8.320;2023-04-22T06:26:14;9.50;99.90
17813;DHT22;9030;50.792;8.320;2023-04-22T06:28:41;9.60;99.90
17813;DHT22;9030;50.792;8.320;2023-04-22T06:31:07;9.60;99.90
17813;DHT22;9030;50.792;8.320;2023-04-22T06:33:35;9.70;99.90
17813;DHT22;9030;50.792;8.320;2023-04-22T06:36:02;9.80;99.90
17813;DHT22;9030;50.792;8.320;2023-04-22T06:38:30;9.80;99.90
17813;DHT22;9030;50.792;8.320;2023-04-22T06:40:57;9.90;99.90
17813;DHT22;9030;50.792;8.320;2023-04-22T06:43:23;9.90;99.90
17813;DHT22;9030;50.792;8.320;2023-04-22T06:45:50;10.00;99.90
17813;DHT22;9030;50.792;8.320;2023-04-22T06:48:17;10.10;99.90
17813;DHT22;9030;50.792;8.320;2023-04-22T06:50:47;10.20;99.90
17813;DHT22;9030;50.792;8.320;2023-04-22T06:53:14;10.50;99.90
17813;DHT22;9030;50.792;8.320;2023-04-22T06:55:41;10.70;99.90
17813;DHT22;9030;50.792;8.320;2023-04-22T06:58:07;10.90;99.90
17813;DHT22;9030;50.792;8.320;2023-04-22T07:00:34;11.00;99.90
17813;DHT22;9030;50.792;8.320;2023-04-22T07:03:03;11.30;99.90
17813;DHT22;9030;50.792;8.320;2023-04-22T07:05:30;11.60;99.90
17813;DHT22;9030;50.792;8.320;2023-04-22T07:07:58;11.80;99.90
17813;DHT22;9030;50.792;8.320;2023-04-22T07:10:25;12.10;99.90
17813;DHT22;9030;50.792;8.320;2023-04-22T07:12:53;12.30;99.90
17813;DHT22;9030;50.792;8.320;2023-04-22T07:15:19;12.20;99.90
17813;DHT22;9030;50.792;8.320;2023-04-22T07:17:46;12.30;99.90
17813;DHT22;9030;50.792;8.320;2023-04-22T07:20:13;12.60;99.90
17813;DHT22;9030;50.792;8.320;2023-04-22T07:22:40;12.70;99.90
17813;DHT22;9030;50.792;8.320;2023-04-22T07:25:08;12.70;99.90
17813;DHT22;9030;50.792;8.320;2023-04-22T07:27:36;12.70;99.90
17813;DHT22;9030;50.792;8.320;2023-04-22T07:30:06;12.80;99.90
17813;DHT22;9030;50.792;8.320;2023-04-22T07:32:35;12.90;99.90
17813;DHT22;9030;50.792;8.320;2023-04-22T07:35:01;13.10;99.90
17813;DHT22;9030;50.792;8.320;2023-04-22T07:37:28;13.40;99.90
17813;DHT22;9030;50.792;8.320;2023-04-22T07:39:55;13.80;99.90
17813;DHT22;9030;50.792;8.320;2023-04-22T07:42:23;14.20;99.90
17813;DHT22;9030;50.792;8.320;2023-04-22T07:44:49;14.60;99.90
17813;DHT22;9030;50.792;8.320;2023-04-22T07:47:16;15.10;99.90
17813;DHT22;9030;50.792;8.320;2023-04-22T07:49:43;15.70;99.90
17813;DHT22;9030;50.792;8.320;2023-04-22T07:52:10;16.00;99.90
17813;DHT22;9030;50.792;8.320;2023-04-22T07:54:36;15.70;99.90
17813;DHT22;9030;50.792;8.320;2023-04-22T07:57:03;15.60;99.90
17813;DHT22;9030;50.792;8.320;2023-04-22T07:59:31;15.50;99.90
17813;DHT22;9030;50.792;8.320;2023-04-22T08:01:58;15.80;99.90
17813;DHT22;9030;50.792;8.320;2023-04-22T08:04:25;16.20;99.90
17813;DHT22;9030;50.792;8.320;2023-04-22T08:06:52;16.60;99.90
17813;DHT22;9030;50.792;8.320;2023-04-22T08:09:19;16.60;99.90
17813;DHT22;9030;50.792;8.320;2023-04-22T08:11:46;16.40;99.90
17813;DHT22;9030;50.792;8.320;2023-04-22T08:14:12;16.40;99.90
17813;DHT22;9030;50.792;8.320;2023-04-22T08:16:42;16.30;99.90
17813;DHT22;9030;50.792;8.320;2023-04-22T08:19:09;16.50;99.90
17813;DHT22;9030;50.792;8.320;2023-04-22T08:21:36;16.90;99.90
17813;DHT22;9030;50.792;8.320;2023-04-22T08:24:03;17.20;99.90
17813;DHT22;9030;50.792;8.320;2023-04-22T08:26:30;17.20;99.90
17813;DHT22;9030;50.792;8.320;2023-04-22T08:28:56;17.40;99.90
17813;DHT22;9030;50.792;8.320;2023-04-22T08:31:23;17.70;99.90
17813;DHT22;9030;50.792;8.320;2023-04-22T08:33:52;17.50;99.90
17813;DHT22;9030;50.792;8.320;2023-04-22T08:36:18;17.60;99.90
17813;DHT22;9030;50.792;8.320;2023-04-22T08:38:47;17.80;99.90
17813;DHT22;9030;50.792;8.320;2023-04-22T08:41:14;17.90;99.90
17813;DHT22;9030;50.792;8.320;2023-04-22T08:43:42;17.80;99.90
17813;DHT22;9030;50.792;8.320;2023-04-22T08:46:10;18.20;99.90
17813;DHT22;9030;50.792;8.320;2023-04-22T08:48:37;18.30;99.90
17813;DHT22;9030;50.792;8.320;2023-04-22T08:51:05;18.30;99.90
17813;DHT22;9030;50.792;8.320;2023-04-22T08:53:33;18.40;99.90
17813;DHT22;9030;50.792;8.320;2023-04-22T08:56:00;18.70;99.90
17813;DHT22;9030;50.792;8.320;2023-04-22T08:58:27;18.90;99.90
17813;DHT22;9030;50.792;8.320;2023-04-22T09:00:56;18.90;99.90
17813;DHT22;9030;50.792;8.320;2023-04-22T09:03:23;18.30;99.90
17813;DHT22;9030;50.792;8.320;2023-04-22T09:05:50;18.70;99.90
17813;DHT22;9030;50.792;8.320;2023-04-22T09:08:20;19.00;99.90
17813;DHT22;9030;50.792;8.320;2023-04-22T09:10:47;19.20;99.90
17813;DHT22;9030;50.792;8.320;2023-04-22T09:13:16;19.10;99.90
17813;DHT22;9030;50.792;8.320;2023-04-22T09:15:44;19.10;99.90
17813;DHT22;9030;50.792;8.320;2023-04-22T09:18:16;18.80;99.90
17813;DHT22;9030;50.792;8.320;2023-04-22T09:20:46;19.30;99.90
17813;DHT22;9030;50.792;8.320;2023-04-22T09:23:22;19.70;99.90
17813;DHT22;9030;50.792;8.320;2023-04-22T09:25:48;20.10;99.90
17813;DHT22;9030;50.792;8.320;2023-04-22T09:28:17;20.00;99.90
17813;DHT22;9030;50.792;8.320;2023-04-22T09:30:46;20.00;99.90
17813;DHT22;9030;50.792;8.320;2023-04-22T09:33:13;20.20;99.90
17813;DHT22;9030;50.792;8.320;2023-04-22T09:35:42;19.90;99.90
17813;DHT22;9030;50.792;8.320;2023-04-22T09:38:10;19.80;99.90
17813;DHT22;9030;50.792;8.320;2023-04-22T09:40:41;20.00;99.90
17813;DHT22;9030;50.792;8.320;2023-04-22T09:43:09;19.90;99.90
17813;DHT22;9030;50.792;8.320;2023-04-22T09:45:37;20.20;99.90
17813;DHT22;9030;50.792;8.320;2023-04-22T09:48:18;20.10;99.90
17813;DHT22;9030;50.792;8.320;2023-04-22T09:50:47;20.10;99.90
17813;DHT22;9030;50.792;8.320;2023-04-22T09:53:15;19.90;99.90
17813;DHT22;9030;50.792;8.320;2023-04-22T09:55:45;20.00;99.90
17813;DHT22;9030;50.792;8.320;2023-04-22T09:58:14;19.80;99.90
17813;DHT22;9030;50.792;8.320;2023-04-22T10:00:48;20.20;99.90
17813;DHT22;9030;50.792;8.320;2023-04-22T10:03:15;20.40;99.90
17813;DHT22;9030;50.792;8.320;2023-04-22T10:05:42;20.60;99.90
17813;DHT22;9030;50.792;8.320;2023-04-22T10:08:12;20.40;99.90
17813;DHT22;9030;50.792;8.320;2023-04-22T10:10:40;20.00;99.90
17813;DHT22;9030;50.792;8.320;2023-04-22T10:13:10;19.80;99.90
17813;DHT22;9030;50.792;8.320;2023-04-22T10:15:39;19.80;99.90
17813;DHT22;9030;50.792;8.320;2023-04-22T10:18:09;19.30;99.90
17813;DHT22;9030;50.792;8.320;2023-04-22T10:20:39;19.40;99.90
17813;DHT22;9030;50.792;8.320;2023-04-22T10:23:12;19.30;99.90
17813;DHT22;9030;50.792;8.320;2023-04-22T10:25:39;19.40;99.90
17813;DHT22;9030;50.792;8.320;2023-04-22T10:28:07;19.10;99.90
17813;DHT22;9030;50.792;8.320;2023-04-22T10:30:36;19.20;99.90
17813;DHT22;9030;50.792;8.320;2023-04-22T10:36:15;19.80;99.90
17813;DHT22;9030;50.792;8.320;2023-04-22T10:39:15;19.80;99.90
17813;DHT22;9030;50.792;8.320;2023-04-22T10:41:50;19.90;99.90
17813;DHT22;9030;50.792;8.320;2023-04-22T10:44:19;19.90;99.90
17813;DHT22;9030;50.792;8.320;2023-04-22T10:46:58;20.10;99.90
17813;DHT22;9030;50.792;8.320;2023-04-22T10:49:26;20.30;99.90
17813;DHT22;9030;50.792;8.320;2023-04-22T10:51:56;20.10;99.90
17813;DHT22;9030;50.792;8.320;2023-04-22T10:57:39;20.40;99.90
17813;DHT22;9030;50.792;8.320;2023-04-22T11:00:40;20.40;99.90
17813;DHT22;9030;50.792;8.320;2023-04-22T11:03:14;20.70;99.90
17813;DHT22;9030;50.792;8.320;2023-04-22T11:05:42;20.70;99.90
17813;DHT22;9030;50.792;8.320;2023-04-22T11:08:15;20.50;99.30
17813;DHT22;9030;50.792;8.320;2023-04-22T11:10:47;20.40;98.90
17813;DHT22;9030;50.792;8.320;2023-04-22T11:13:15;20.70;99.90
17813;DHT22;9030;50.792;8.320;2023-04-22T11:15:44;21.10;99.90
17813;DHT22;9030;50.792;8.320;2023-04-22T11:18:19;21.20;99.90
17813;DHT22;9030;50.792;8.320;2023-04-22T11:20:46;21.00;99.90
17813;DHT22;9030;50.792;8.320;2023-04-22T11:23:17;21.00;99.80
17813;DHT22;9030;50.792;8.320;2023-04-22T11:25:45;21.30;97.00
17813;DHT22;9030;50.792;8.320;2023-04-22T11:28:12;21.50;99.90
17813;DHT22;9030;50.792;8.320;2023-04-22T11:30:38;21.70;97.70
17813;DHT22;9030;50.792;8.320;2023-04-22T11:33:05;21.70;98.70
17813;DHT22;9030;50.792;8.320;2023-04-22T11:35:34;21.60;93.50
17813;DHT22;9030;50.792;8.320;2023-04-22T11:38:03;21.20;93.80
17813;DHT22;9030;50.792;8.320;2023-04-22T11:40:32;21.50;93.00
17813;DHT22;9030;50.792;8.320;2023-04-22T11:43:00;21.80;92.70
17813;DHT22;9030;50.792;8.320;2023-04-22T11:45:28;21.90;91.50
17813;DHT22;9030;50.792;8.320;2023-04-22T11:47:55;21.30;90.30
17813;DHT22;9030;50.792;8.320;2023-04-22T11:50:24;21.10;90.90
17813;DHT22;9030;50.792;8.320;2023-04-22T11:52:54;21.00;90.40
17813;DHT22;9030;50.792;8.320;2023-04-22T11:55:23;20.80;90.70
17813;DHT22;9030;50.792;8.320;2023-04-22T11:57:54;21.00;92.70
17813;DHT22;9030;50.792;8.320;2023-04-22T12:00:22;21.10;92.70
17813;DHT22;9030;50.792;8.320;2023-04-22T12:02:56;21.20;90.90
17813;DHT22;9030;50.792;8.320;2023-04-22T12:05:34;21.40;96.40
17813;DHT22;9030;50.792;8.320;2023-04-22T12:08:06;21.70;92.50
17813;DHT22;9030;50.792;8.320;2023-04-22T12:10:32;21.70;91.40
17813;DHT22;9030;50.792;8.320;2023-04-22T12:13:00;22.10;92.00
17813;DHT22;9030;50.792;8.320;2023-04-22T12:15:36;22.80;90.30
17813;DHT22;9030;50.792;8.320;2023-04-22T12:18:03;22.90;88.40
17813;DHT22;9030;50.792;8.320;2023-04-22T12:20:32;22.50;88.20
17813;DHT22;9030;50.792;8.320;2023-04-22T12:22:59;22.50;90.00
17813;DHT22;9030;50.792;8.320;2023-04-22T12:25:27;22.50;88.00
17813;DHT22;9030;50.792;8.320;2023-04-22T12:27:54;22.80;90.10
17813;DHT22;9030;50.792;8.320;2023-04-22T12:30:21;22.90;90.50
17813;DHT22;9030;50.792;8.320;2023-04-22T12:32:49;22.20;89.90
17813;DHT22;9030;50.792;8.320;2023-04-22T12:35:16;21.90;86.80
17813;DHT22;9030;50.792;8.320;2023-04-22T12:37:43;21.70;90.90
17813;DHT22;9030;50.792;8.320;2023-04-22T12:40:10;22.00;90.00
17813;DHT22;9030;50.792;8.320;2023-04-22T12:42:38;22.20;87.90
17813;DHT22;9030;50.792;8.320;2023-04-22T12:45:05;22.60;90.40
17813;DHT22;9030;50.792;8.320;2023-04-22T12:47:33;22.70;87.80
17813;DHT22;9030;50.792;8.320;2023-04-22T12:50:00;22.50;90.00
17813;DHT22;9030;50.792;8.320;2023-04-22T12:52:31;22.40;88.60
17813;DHT22;9030;50.792;8.320;2023-04-22T12:54:58;22.20;90.00
17813;DHT22;9030;50.792;8.320;2023-04-22T12:57:25;22.30;90.80
17813;DHT22;9030;50.792;8.320;2023-04-22T12:59:53;22.40;91.50
17813;DHT22;9030;50.792;8.320;2023-04-22T13:02:20;22.60;91.80
17813;DHT22;9030;50.792;8.320;2023-04-22T13:04:46;22.50;91.70
17813;DHT22;9030;50.792;8.320;2023-04-22T13:07:14;22.80;91.90
17813;DHT22;9030;50.792;8.320;2023-04-22T13:09:41;22.70;91.50
17813;DHT22;9030;50.792;8.320;2023-04-22T13:12:08;22.80;91.00
17813;DHT22;9030;50.792;8.320;2023-04-22T13:14:35;22.10;91.80
17813;DHT22;9030;50.792;8.320;2023-04-22T13:17:03;21.30;91.20
17813;DHT22;9030;50.792;8.320;2023-04-22T13:19:30;20.80;93.30
17813;DHT22;9030;50.792;8.320;2023-04-22T13:21:58;20.60;93.20
17813;DHT22;9030;50.792;8.320;2023-04-22T13:24:25;20.50;93.70
17813;DHT22;9030;50.792;8.320;2023-04-22T13:26:52;20.40;93.20
17813;DHT22;9030;50.792;8.320;2023-04-22T13:29:18;20.20;94.50
17813;DHT22;9030;50.792;8.320;2023-04-22T13:31:45;20.10;94.20
17813;DHT22;9030;50.792;8.320;2023-04-22T13:34:13;20.00;94.90
17813;DHT22;9030;50.792;8.320;2023-04-22T13:36:40;19.80;96.00
17813;DHT22;9030;50.792;8.320;2023-04-22T13:39:06;19.70;95.30
17813;DHT22;9030;50.792;8.320;2023-04-22T13:41:33;19.70;96.30
17813;DHT22;9030;50.792;8.320;2023-04-22T13:44:00;19.80;97.40
17813;DHT22;9030;50.792;8.320;2023-04-22T13:46:28;19.70;95.60
17813;DHT22;9030;50.792;8.320;2023-04-22T13:48:55;19.80;97.10
17813;DHT22;9030;50.792;8.320;2023-04-22T13:51:24;19.90;98.10
17813;DHT22;9030;50.792;8.320;2023-04-22T13:53:51;19.90;98.60
17813;DHT22;9030;50.792;8.320;2023-04-22T13:56:17;19.70;98.50
17813;DHT22;9030;50.792;8.320;2023-04-22T13:58:44;19.60;99.00
17813;DHT22;9030;50.792;8.320;2023-04-22T14:01:11;19.50;98.40
17813;DHT22;9030;50.792;8.320;2023-04-22T14:03:37;19.40;99.50
17813;DHT22;9030;50.792;8.320;2023-04-22T14:06:05;19.30;98.90
17813;DHT22;9030;50.792;8.320;2023-04-22T14:08:33;19.20;99.90
17813;DHT22;9030;50.792;8.320;2023-04-22T14:11:00;19.10;99.90
17813;DHT22;9030;50.792;8.320;2023-04-22T14:13:28;19.00;99.90
17813;DHT22;9030;50.792;8.320;2023-04-22T14:15:55;18.70;99.90
17813;DHT22;9030;50.792;8.320;2023-04-22T14:18:22;18.70;99.90
17813;DHT22;9030;50.792;8.320;2023-04-22T14:20:49;18.70;99.90
17813;DHT22;9030;50.792;8.320;2023-04-22T14:23:16;18.70;99.90
17813;DHT22;9030;50.792;8.320;2023-04-22T14:25:46;18.70;99.90
17813;DHT22;9030;50.792;8.320;2023-04-22T14:28:12;18.60;99.90
17813;DHT22;9030;50.792;8.320;2023-04-22T14:30:39;18.60;99.90
17813;DHT22;9030;50.792;8.320;2023-04-22T14:33:06;18.50;99.90
17813;DHT22;9030;50.792;8.320;2023-04-22T14:35:36;18.50;99.90
17813;DHT22;9030;50.792;8.320;2023-04-22T14:38:06;18.40;99.90
17813;DHT22;9030;50.792;8.320;2023-04-22T14:40:33;18.40;99.90
17813;DHT22;9030;50.792;8.320;2023-04-22T14:43:04;18.30;99.90
17813;DHT22;9030;50.792;8.320;2023-04-22T14:45:31;18.20;99.90
17813;DHT22;9030;50.792;8.320;2023-04-22T14:47:59;18.00;99.90
17813;DHT22;9030;50.792;8.320;2023-04-22T14:50:26;17.80;99.90
17813;DHT22;9030;50.792;8.320;2023-04-22T14:52:53;17.70;99.90
17813;DHT22;9030;50.792;8.320;2023-04-22T14:55:20;17.50;99.90
17813;DHT22;9030;50.792;8.320;2023-04-22T14:57:48;17.40;99.90
17813;DHT22;9030;50.792;8.320;2023-04-22T15:00:16;17.30;99.90
17813;DHT22;9030;50.792;8.320;2023-04-22T15:02:43;17.30;99.90
17813;DHT22;9030;50.792;8.320;2023-04-22T15:05:10;17.20;99.90
17813;DHT22;9030;50.792;8.320;2023-04-22T15:07:37;17.30;99.90
17813;DHT22;9030;50.792;8.320;2023-04-22T15:10:04;17.30;99.90
17813;DHT22;9030;50.792;8.320;2023-04-22T15:12:31;17.30;99.90
17813;DHT22;9030;50.792;8.320;2023-04-22T15:14:58;17.30;99.90
17813;DHT22;9030;50.792;8.320;2023-04-22T15:17:26;17.30;99.90
17813;DHT22;9030;50.792;8.320;2023-04-22T15:19:55;17.30;99.90
17813;DHT22;9030;50.792;8.320;2023-04-22T15:22:22;17.30;99.90
17813;DHT22;9030;50.792;8.320;2023-04-22T15:24:50;17.20;99.90
17813;DHT22;9030;50.792;8.320;2023-04-22T15:27:17;17.10;99.90
17813;DHT22;9030;50.792;8.320;2023-04-22T15:29:44;17.10;99.90
17813;DHT22;9030;50.792;8.320;2023-04-22T15:32:12;17.10;99.90
17813;DHT22;9030;50.792;8.320;2023-04-22T15:34:40;17.10;99.90
17813;DHT22;9030;50.792;8.320;2023-04-22T15:37:07;17.10;99.90
17813;DHT22;9030;50.792;8.320;2023-04-22T15:39:33;17.10;99.90
17813;DHT22;9030;50.792;8.320;2023-04-22T15:42:00;17.20;99.90
17813;DHT22;9030;50.792;8.320;2023-04-22T15:44:28;17.20;99.90
17813;DHT22;9030;50.792;8.320;2023-04-22T15:46:56;17.30;99.90
17813;DHT22;9030;50.792;8.320;2023-04-22T15:49:24;17.30;99.90
17813;DHT22;9030;50.792;8.320;2023-04-22T15:51:52;17.30;99.90
17813;DHT22;9030;50.792;8.320;2023-04-22T15:54:18;17.50;99.90
17813;DHT22;9030;50.792;8.320;2023-04-22T15:56:45;17.50;99.90
17813;DHT22;9030;50.792;8.320;2023-04-22T15:59:12;17.50;99.90
17813;DHT22;9030;50.792;8.320;2023-04-22T16:01:39;17.60;99.90
17813;DHT22;9030;50.792;8.320;2023-04-22T16:04:06;17.60;99.90